createdAt,value
2019-02-14T00:01:18.045Z,78.39
2019-02-14T00:03:47.908Z,78.28
2019-02-14T00:06:17.793Z,78.44
2019-02-14T00:08:47.655Z,78.39
2019-02-14T00:11:18.124Z,78.66
2019-02-14T00:13:48.073Z,78.64
2019-02-14T00:16:18.317Z,78.71
2019-02-14T00:18:48.255Z,78.80
2019-02-14T00:21:18.060Z,78.61
2019-02-14T00:23:48.260Z,78.29
2019-02-14T00:26:18.520Z,78.25
2019-02-14T00:28:48.461Z,78.67
2019-02-14T00:31:18.426Z,78.81
2019-02-14T00:33:48.300Z,78.85
2019-02-14T00:36:18.167Z,78.78
2019-02-14T00:38:48.118Z,78.78
2019-02-14T00:41:18.379Z,78.81
2019-02-14T00:43:48.171Z,78.63
2019-02-14T00:46:18.052Z,78.61
2019-02-14T00:48:48.963Z,78.61
2019-02-14T00:51:19.171Z,78.69
2019-02-14T00:53:49.734Z,78.70
2019-02-14T00:56:20.021Z,78.44
2019-02-14T00:58:49.897Z,78.53
2019-02-14T01:01:19.824Z,78.64
2019-02-14T01:03:49.763Z,78.61
2019-02-14T01:06:19.704Z,78.73
2019-02-14T01:08:49.559Z,78.83
2019-02-14T01:11:19.501Z,78.62
2019-02-14T01:13:49.449Z,78.63
2019-02-14T01:16:19.391Z,78.45
2019-02-14T01:18:50.445Z,78.35
2019-02-14T01:21:20.400Z,78.30
2019-02-14T01:23:50.368Z,78.34
2019-02-14T01:26:20.571Z,78.49
2019-02-14T01:28:50.447Z,78.69
2019-02-14T01:31:20.602Z,78.65
2019-02-14T01:33:50.430Z,78.67
2019-02-14T01:36:21.052Z,78.41
2019-02-14T01:38:51.574Z,78.50
2019-02-14T01:41:21.374Z,78.50
2019-02-14T01:43:51.312Z,78.65
2019-02-14T01:46:21.265Z,78.47
2019-02-14T01:48:51.210Z,78.78
2019-02-14T01:51:21.180Z,78.70
2019-02-14T01:53:51.095Z,78.85
2019-02-14T01:56:21.040Z,78.96
2019-02-14T01:58:51.970Z,79.19
2019-02-14T02:01:21.916Z,79.15
2019-02-14T02:03:51.778Z,79.22
2019-02-14T02:06:22.066Z,79.06
2019-02-14T02:08:52.582Z,78.93
2019-02-14T02:11:22.810Z,78.80
2019-02-14T02:13:53.001Z,78.85
2019-02-14T02:16:23.028Z,79.01
2019-02-14T02:18:52.904Z,79.20
2019-02-14T02:21:24.168Z,79.01
2019-02-14T02:23:53.956Z,78.89
2019-02-14T02:26:23.899Z,78.89
2019-02-14T02:28:54.232Z,78.89
2019-02-14T02:31:24.183Z,78.82
2019-02-14T02:33:54.603Z,78.91
2019-02-14T02:36:24.549Z,78.81
2019-02-14T02:38:54.839Z,78.91
2019-02-14T02:41:24.777Z,78.71
2019-02-14T02:43:55.063Z,78.70
2019-02-14T02:46:24.864Z,79.23
2019-02-14T02:48:54.724Z,79.55
2019-02-14T02:51:24.594Z,79.52
2019-02-14T02:53:54.386Z,79.62
2019-02-14T02:56:24.273Z,79.48
2019-02-14T02:58:54.222Z,79.16
2019-02-14T03:01:24.158Z,79.05
2019-02-14T03:03:54.149Z,78.91
2019-02-14T03:06:24.080Z,78.74
2019-02-14T03:08:54.999Z,79.00
2019-02-14T03:11:24.891Z,79.08
2019-02-14T03:13:55.821Z,79.29
2019-02-14T03:16:25.784Z,79.42
2019-02-14T03:18:55.566Z,79.65
2019-02-14T03:21:25.441Z,79.68
2019-02-14T03:23:55.312Z,79.56
2019-02-14T03:26:26.248Z,79.39
2019-02-14T03:28:56.390Z,79.54
2019-02-14T03:31:26.379Z,79.71
2019-02-14T03:33:56.584Z,79.80
2019-02-14T03:36:26.457Z,80.06
2019-02-14T03:38:56.397Z,80.09
2019-02-14T03:41:26.564Z,80.15
2019-02-14T03:43:56.811Z,80.17
2019-02-14T03:46:26.753Z,80.15
2019-02-14T03:48:56.699Z,80.06
2019-02-14T03:51:26.809Z,80.01
2019-02-14T03:53:57.101Z,79.89
2019-02-14T03:56:27.012Z,79.90
2019-02-14T03:58:56.951Z,79.71
2019-02-14T04:01:26.815Z,79.87
2019-02-14T04:03:57.776Z,80.26
2019-02-14T04:06:27.883Z,80.26
2019-02-14T04:08:58.523Z,80.17
2019-02-14T04:11:28.636Z,80.10
2019-02-14T04:13:58.432Z,80.11
2019-02-14T04:16:28.297Z,79.86
2019-02-14T04:18:58.162Z,79.58
2019-02-14T04:21:28.042Z,79.28
2019-02-14T04:23:58.909Z,79.37
2019-02-14T04:26:28.854Z,79.67
2019-02-14T04:28:59.158Z,79.81
2019-02-14T04:31:29.035Z,79.41
2019-02-14T04:33:58.933Z,79.50
2019-02-14T04:36:35.775Z,79.59
2019-02-14T04:39:00.901Z,79.42
2019-02-14T04:41:32.701Z,79.52
2019-02-14T04:44:02.600Z,79.61
2019-02-14T04:46:33.622Z,79.71
2019-02-14T04:49:03.603Z,79.73
2019-02-14T04:51:33.481Z,79.46
2019-02-14T04:54:03.429Z,79.47
2019-02-14T04:56:33.687Z,79.54
2019-02-14T04:59:03.960Z,79.78
2019-02-14T05:01:34.087Z,80.20
2019-02-14T05:04:04.320Z,80.70
2019-02-14T05:06:34.537Z,80.90
2019-02-14T05:09:06.925Z,81.09
2019-02-14T05:11:37.209Z,81.05
2019-02-14T05:14:07.755Z,80.83
2019-02-14T05:16:37.713Z,80.84
2019-02-14T05:19:07.959Z,80.80
2019-02-14T05:21:37.831Z,81.07
2019-02-14T05:24:07.623Z,81.16
2019-02-14T05:26:37.905Z,81.11
2019-02-14T05:29:07.773Z,81.20
2019-02-14T05:31:37.991Z,81.24
2019-02-14T05:34:07.926Z,81.22
2019-02-14T05:36:38.419Z,81.06
2019-02-14T05:39:08.365Z,80.84
2019-02-14T05:41:38.317Z,80.65
2019-02-14T05:44:08.189Z,80.58
2019-02-14T05:46:38.351Z,80.49
2019-02-14T05:49:08.292Z,80.25
2019-02-14T05:51:38.507Z,80.18
2019-02-14T05:54:08.459Z,80.50
2019-02-14T05:56:38.398Z,80.61
2019-02-14T05:59:08.357Z,80.77
2019-02-14T06:01:38.175Z,80.95
2019-02-14T06:04:08.599Z,81.05
2019-02-14T06:06:38.476Z,80.83
2019-02-14T06:09:09.421Z,80.61
2019-02-14T06:11:39.240Z,80.31
2019-02-14T06:14:09.191Z,80.28
2019-02-14T06:16:39.138Z,80.46
2019-02-14T06:19:09.281Z,80.52
2019-02-14T06:21:39.149Z,80.54
2019-02-14T06:24:09.253Z,80.66
2019-02-14T06:26:39.114Z,80.44
2019-02-14T06:29:08.911Z,80.34
2019-02-14T06:31:39.090Z,80.13
2019-02-14T06:34:09.307Z,79.82
2019-02-14T06:36:39.532Z,79.75
2019-02-14T06:39:09.435Z,79.97
2019-02-14T06:41:39.305Z,79.83
2019-02-14T06:44:09.189Z,79.86
2019-02-14T06:46:39.058Z,80.00
2019-02-14T06:49:08.847Z,80.24
2019-02-14T06:51:39.122Z,80.54
2019-02-14T06:54:09.357Z,80.79
2019-02-14T06:56:39.291Z,80.70
2019-02-14T06:59:09.445Z,80.77
2019-02-14T07:01:39.613Z,80.92
2019-02-14T07:04:09.475Z,80.81
2019-02-14T07:06:39.347Z,80.79
2019-02-14T07:09:09.253Z,80.78
2019-02-14T07:11:39.117Z,80.83
2019-02-14T07:14:09.015Z,80.87
2019-02-14T07:16:39.209Z,80.86
2019-02-14T07:19:09.157Z,80.64
2019-02-14T07:21:38.946Z,80.60
2019-02-14T07:24:08.878Z,80.61
2019-02-14T07:26:38.826Z,80.78
2019-02-14T07:29:08.690Z,80.89
2019-02-14T07:31:39.553Z,81.05
2019-02-14T07:34:09.363Z,81.17
2019-02-14T07:36:39.226Z,81.24
2019-02-14T07:39:11.035Z,81.18
2019-02-14T07:41:40.809Z,81.00
2019-02-14T07:44:10.687Z,81.10
2019-02-14T09:09:02.263Z,83.15
2019-02-14T09:11:33.754Z,82.73
2019-02-14T09:14:03.628Z,82.38
2019-02-14T09:16:33.812Z,81.82
2019-02-14T09:19:03.689Z,81.36
2019-02-14T09:21:33.634Z,81.20
2019-02-14T09:24:03.810Z,80.92
2019-02-14T09:26:33.696Z,80.86
2019-02-14T09:29:03.656Z,80.25
2019-02-14T09:31:33.571Z,80.18
2019-02-14T09:34:03.520Z,80.17
2019-02-14T09:36:34.443Z,80.01
2019-02-14T09:39:05.296Z,79.94
2019-02-14T09:41:35.191Z,79.81
2019-02-14T09:44:05.477Z,79.56
2019-02-14T09:46:35.406Z,78.77
2019-02-14T09:49:05.364Z,78.52
2019-02-14T09:51:35.355Z,78.07
2019-02-14T09:54:05.315Z,78.08
2019-02-14T09:56:35.610Z,77.42
2019-02-14T09:59:05.589Z,76.63
2019-02-14T10:01:35.792Z,76.41
2019-02-14T10:04:05.670Z,76.62
2019-02-14T10:06:36.904Z,76.19
2019-02-14T10:09:08.380Z,75.33
2019-02-14T10:11:38.923Z,74.61
2019-02-14T10:14:08.879Z,74.72
2019-02-14T10:16:38.783Z,74.25
2019-02-14T10:19:09.082Z,72.82
2019-02-14T10:21:38.900Z,72.02
2019-02-14T10:24:08.860Z,71.72
2019-02-14T10:26:38.819Z,71.47
2019-02-14T10:29:09.036Z,71.79
2019-02-14T10:31:39.015Z,71.31
2019-02-14T10:34:09.173Z,70.88
2019-02-14T10:36:39.513Z,70.42
2019-02-14T10:39:09.407Z,70.05
2019-02-14T10:41:39.379Z,69.04
2019-02-14T10:44:09.365Z,68.37
2019-02-14T10:46:39.776Z,68.25
2019-02-14T10:49:09.734Z,68.06
2019-02-14T10:51:39.612Z,66.92
2019-02-14T10:54:09.483Z,66.18
2019-02-14T10:56:39.734Z,65.25
2019-02-14T10:59:09.682Z,65.52
2019-02-14T11:01:39.759Z,65.38
2019-02-14T11:04:09.968Z,65.04
2019-02-14T11:06:40.254Z,65.17
2019-02-14T11:09:10.286Z,65.05
2019-02-14T11:11:40.249Z,64.79
2019-02-14T11:14:10.469Z,64.45
2019-02-14T11:16:40.594Z,63.33
2019-02-14T11:19:10.544Z,62.43
2019-02-14T11:21:40.500Z,61.74
2019-02-14T11:24:10.371Z,61.13
2019-02-14T11:26:40.261Z,60.59
2019-02-14T11:29:10.078Z,58.57
2019-02-14T11:31:40.281Z,57.94
2019-02-14T11:34:10.164Z,58.07
2019-02-14T11:36:40.129Z,55.69
2019-02-14T11:39:10.835Z,55.22
2019-02-14T11:41:40.872Z,55.06
2019-02-14T11:44:10.753Z,54.76
2019-02-14T11:46:40.899Z,54.66
2019-02-14T11:49:11.012Z,55.49
2019-02-14T11:51:40.980Z,55.66
2019-02-14T11:54:11.704Z,56.18
2019-02-14T11:56:41.720Z,54.98
2019-02-14T11:59:11.680Z,55.21
2019-02-14T12:01:41.685Z,55.18
2019-02-14T12:04:11.587Z,56.10
2019-02-14T12:06:41.939Z,54.74
2019-02-14T12:09:11.987Z,54.65
2019-02-14T12:11:42.238Z,54.21
2019-02-14T12:14:12.247Z,53.71
2019-02-14T12:16:42.189Z,53.75
2019-02-14T12:19:12.149Z,53.10
2019-02-14T12:21:42.026Z,53.02
2019-02-14T12:24:11.902Z,52.79
2019-02-14T12:26:41.765Z,51.29
2019-02-14T12:29:11.715Z,50.82
2019-02-14T12:31:41.594Z,49.81
2019-02-14T12:34:11.467Z,50.14
2019-02-14T12:36:41.347Z,50.29
2019-02-14T12:39:11.760Z,50.41
2019-02-14T12:41:41.846Z,50.33
2019-02-14T12:44:11.726Z,50.54
2019-02-14T12:46:41.611Z,50.58
2019-02-14T12:49:11.485Z,49.91
2019-02-14T12:51:42.497Z,49.83
2019-02-14T12:54:12.669Z,49.39
2019-02-14T12:56:42.852Z,49.13
2019-02-14T12:59:12.729Z,49.40
2019-02-14T13:01:42.610Z,50.29
2019-02-14T13:04:12.952Z,50.75
2019-02-14T13:06:42.845Z,49.30
2019-02-14T13:09:19.625Z,49.03
2019-02-14T13:11:45.772Z,48.63
2019-02-14T13:14:15.642Z,48.28
2019-02-14T13:16:45.603Z,47.50
2019-02-14T13:19:15.562Z,47.23
2019-02-14T13:21:45.831Z,47.26
2019-02-14T13:24:15.948Z,47.13
2019-02-14T13:26:45.845Z,47.60
2019-02-14T13:29:16.138Z,47.78
2019-02-14T13:31:46.040Z,48.19
2019-02-14T13:34:15.916Z,48.73
2019-02-14T13:36:46.030Z,48.37
2019-02-14T13:39:17.424Z,47.35
2019-02-14T13:41:47.315Z,47.67
2019-02-14T13:44:18.041Z,47.35
2019-02-14T13:46:48.247Z,47.04
2019-02-14T13:49:18.123Z,46.64
2019-02-14T13:51:48.085Z,47.57
2019-02-14T13:54:19.840Z,47.10
2019-02-14T13:56:54.151Z,46.35
2019-02-14T13:59:21.972Z,45.51
2019-02-14T14:01:52.791Z,44.10
2019-02-14T14:04:22.725Z,44.57
2019-02-14T14:06:52.704Z,44.04
2019-02-14T14:09:22.682Z,45.66
2019-02-14T14:11:54.503Z,45.36
2019-02-14T14:14:24.425Z,43.99
2019-02-14T14:16:54.905Z,43.91
2019-02-14T14:19:24.814Z,42.31
2019-02-14T14:21:54.754Z,41.72
2019-02-14T14:24:24.701Z,39.76
2019-02-14T14:26:54.516Z,39.91
2019-02-14T14:29:24.473Z,37.80
2019-02-14T14:31:54.426Z,37.19
2019-02-14T14:34:24.310Z,36.13
2019-02-14T14:36:54.283Z,37.21
2019-02-14T14:39:24.170Z,36.88
2019-02-14T14:41:54.138Z,35.47
2019-02-14T14:44:34.743Z,36.26
2019-02-14T14:47:10.416Z,36.57
2019-02-14T14:49:40.462Z,34.84
2019-02-14T14:52:10.415Z,34.01
2019-02-14T14:54:40.615Z,34.56
2019-02-14T14:57:10.480Z,34.30
2019-02-14T14:59:40.440Z,34.44
2019-02-14T15:02:10.383Z,35.12
2019-02-14T15:04:40.342Z,34.63
2019-02-14T15:07:10.806Z,33.39
2019-02-14T15:09:40.675Z,32.73
2019-02-14T15:12:10.834Z,32.22
2019-02-14T15:14:41.406Z,32.56
2019-02-14T15:17:11.296Z,32.86
2019-02-14T15:19:41.201Z,32.77
2019-02-14T15:22:11.093Z,32.54
2019-02-14T15:24:40.900Z,33.17
2019-02-14T15:27:10.806Z,33.82
2019-02-14T15:29:40.955Z,34.59
2019-02-14T15:32:10.925Z,33.80
2019-02-14T15:34:40.880Z,34.09
2019-02-14T15:37:12.631Z,36.24
2019-02-14T15:39:42.330Z,36.86
2019-02-14T15:42:12.288Z,35.66
2019-02-14T15:44:42.626Z,37.88
2019-02-14T15:47:12.531Z,39.51
2019-02-14T15:49:42.399Z,40.36
2019-02-14T15:52:12.538Z,41.46
2019-02-14T15:54:42.520Z,43.20
2019-02-14T15:57:16.510Z,43.97
2019-02-14T15:59:47.801Z,46.12
2019-02-14T16:02:17.763Z,46.75
2019-02-14T16:04:47.713Z,48.14
2019-02-14T16:07:17.702Z,49.14
2019-02-14T16:09:48.810Z,49.75
2019-02-14T16:12:20.129Z,48.64
2019-02-14T16:14:51.731Z,48.95
2019-02-14T16:17:22.022Z,48.96
2019-02-14T16:19:52.254Z,49.22
2019-02-14T16:22:29.850Z,48.85
2019-02-14T16:24:53.875Z,49.17
2019-02-14T16:27:25.153Z,48.71
2019-02-14T16:29:56.155Z,48.60
2019-02-14T16:32:26.141Z,48.58
2019-02-14T16:34:56.542Z,49.13
2019-02-14T16:37:26.820Z,50.17
2019-02-14T16:39:58.456Z,49.66
2019-02-14T16:42:28.500Z,50.40
2019-02-14T16:44:58.456Z,50.85
2019-02-14T16:47:28.408Z,50.44
2019-02-14T16:49:58.438Z,51.50
2019-02-14T16:52:28.381Z,52.16
2019-02-14T16:54:58.624Z,53.69
2019-02-14T16:57:28.565Z,54.31
2019-02-14T16:59:58.796Z,54.86
2019-02-14T17:02:28.721Z,55.95
2019-02-14T17:04:58.673Z,56.60
2019-02-14T17:07:28.499Z,56.77
2019-02-14T17:09:58.469Z,57.37
2019-02-14T17:12:28.662Z,58.29
2019-02-14T17:14:58.854Z,58.98
2019-02-14T17:17:29.086Z,59.44
2019-02-14T17:19:59.028Z,59.08
2019-02-14T17:22:28.956Z,59.09
2019-02-14T17:24:58.929Z,59.62
2019-02-14T17:27:28.793Z,59.73
2019-02-14T17:29:58.965Z,59.79
2019-02-14T17:32:28.900Z,60.18
2019-02-14T17:34:58.772Z,59.97
2019-02-14T17:37:28.700Z,59.68
2019-02-14T17:39:58.571Z,59.96
2019-02-14T17:42:28.586Z,60.05
2019-02-14T17:44:58.456Z,59.85
2019-02-14T17:47:28.762Z,60.48
2019-02-14T17:49:59.299Z,60.89
2019-02-14T17:52:30.956Z,61.02
2019-02-14T17:55:00.893Z,60.47
2019-02-14T17:57:30.828Z,60.38
2019-02-14T18:00:00.710Z,60.51
2019-02-14T18:02:30.925Z,60.61
2019-02-14T18:05:01.145Z,60.47
2019-02-14T18:07:31.002Z,60.82
2019-02-14T18:10:01.083Z,60.74
2019-02-14T18:12:31.097Z,60.98
2019-02-14T18:15:01.078Z,60.99
2019-02-14T18:17:31.108Z,61.44
2019-02-14T18:20:00.977Z,60.95
2019-02-14T18:22:31.015Z,61.04
2019-02-14T18:25:00.999Z,60.92
2019-02-14T18:27:31.108Z,60.74
2019-02-14T18:30:01.201Z,61.75
2019-02-14T18:32:31.736Z,61.26
2019-02-14T18:35:01.690Z,61.13
2019-02-14T18:37:31.800Z,61.37
2019-02-14T18:40:02.104Z,61.28
2019-02-14T18:42:33.233Z,61.48
2019-02-14T18:45:03.220Z,60.88
2019-02-14T18:47:39.460Z,60.71
2019-02-14T18:50:06.631Z,61.06
2019-02-14T18:52:36.667Z,60.97
2019-02-14T18:55:07.332Z,61.39
2019-02-14T18:57:37.291Z,61.21
2019-02-14T19:00:10.405Z,60.82
2019-02-14T19:02:40.654Z,60.50
2019-02-14T19:05:11.962Z,60.80
2019-02-14T19:07:42.312Z,60.76
2019-02-14T19:10:12.834Z,61.33
2019-02-14T19:12:43.033Z,61.15
2019-02-14T19:15:13.021Z,61.26
2019-02-14T19:17:42.939Z,61.04
2019-02-14T19:20:12.901Z,61.31
2019-02-14T19:22:42.812Z,61.79
2019-02-14T19:25:12.799Z,62.07
2019-02-14T19:27:44.159Z,62.25
2019-02-14T19:30:14.569Z,62.06
2019-02-14T19:32:44.502Z,62.03
2019-02-14T19:35:22.832Z,61.91
2019-02-14T19:37:46.098Z,62.24
2019-02-14T19:40:16.479Z,62.48
2019-02-14T19:42:46.334Z,62.01
2019-02-14T19:45:16.300Z,61.97
2019-02-14T19:47:46.411Z,62.45
2019-02-14T19:50:16.391Z,63.20
2019-02-14T19:52:46.610Z,62.67
2019-02-14T19:55:16.569Z,61.61
2019-02-14T19:57:46.741Z,61.49
2019-02-14T20:00:17.061Z,61.65
2019-02-14T20:02:46.919Z,61.64
2019-02-14T20:05:16.924Z,61.86
2019-02-14T20:07:47.118Z,62.27
2019-02-14T20:10:17.493Z,62.19
2019-02-14T20:12:47.455Z,62.33
2019-02-14T20:15:17.684Z,61.99
2019-02-14T20:17:47.681Z,62.13
2019-02-14T20:20:17.632Z,62.27
2019-02-14T20:22:47.562Z,62.36
2019-02-14T20:25:19.008Z,62.65
2019-02-14T20:27:50.030Z,62.60
2019-02-14T20:30:20.124Z,63.03
2019-02-14T20:32:50.087Z,63.26
2019-02-14T20:35:20.006Z,63.20
2019-02-14T20:37:49.892Z,63.23
2019-02-14T20:40:19.992Z,63.09
2019-02-14T20:42:49.921Z,62.88
2019-02-14T20:45:19.873Z,63.15
2019-02-14T20:47:50.925Z,62.60
2019-02-14T20:50:21.235Z,62.49
2019-02-14T20:52:51.186Z,61.86
2019-02-14T20:55:21.214Z,61.69
2019-02-14T20:57:51.160Z,61.70
2019-02-14T21:00:35.199Z,61.93
2019-02-14T21:03:05.339Z,61.92
2019-02-14T21:05:35.956Z,61.75
2019-02-14T21:08:05.900Z,62.40
2019-02-14T21:10:35.849Z,62.74
2019-02-14T21:13:06.241Z,62.72
2019-02-14T21:15:36.188Z,61.96
2019-02-14T21:18:06.152Z,62.05
2019-02-14T21:20:38.896Z,62.44
2019-02-14T21:23:08.864Z,63.05
2019-02-14T21:25:38.755Z,63.25
2019-02-14T21:28:08.819Z,63.14
2019-02-14T21:30:38.824Z,63.23
2019-02-14T21:33:09.066Z,62.51
2019-02-14T21:35:39.211Z,62.27
2019-02-14T21:38:09.124Z,61.84
2019-02-14T21:40:39.252Z,61.62
2019-02-14T21:43:09.175Z,61.40
2019-02-14T21:45:39.299Z,61.21
2019-02-14T21:48:09.306Z,60.94
2019-02-14T21:50:39.520Z,61.42
2019-02-14T21:53:10.446Z,61.72
2019-02-14T21:55:41.472Z,61.60
2019-02-14T21:58:11.593Z,61.58
2019-02-14T22:00:41.612Z,61.53
2019-02-14T22:03:12.178Z,61.70
2019-02-14T22:05:42.098Z,61.50
2019-02-14T22:08:12.137Z,61.38
2019-02-14T22:10:42.057Z,61.55
2019-02-14T22:13:12.300Z,61.61
2019-02-14T22:15:42.606Z,61.95
2019-02-14T22:18:12.554Z,61.49
2019-02-14T22:20:42.493Z,61.85
2019-02-14T22:23:12.463Z,61.84
2019-02-14T22:25:42.616Z,62.06
2019-02-14T22:28:12.574Z,61.97
2019-02-14T22:30:42.475Z,62.08
2019-02-14T22:33:12.427Z,62.42
2019-02-14T22:35:42.461Z,62.32
2019-02-14T22:38:12.415Z,62.36
2019-02-14T22:40:42.315Z,62.23
2019-02-14T22:43:12.184Z,62.59
2019-02-14T22:45:42.399Z,62.67
2019-02-14T22:48:12.657Z,62.37
2019-02-14T22:50:42.599Z,62.42
2019-02-14T22:53:12.799Z,62.58
2019-02-14T22:55:42.758Z,62.83
2019-02-14T22:58:12.633Z,63.03
2019-02-14T23:00:47.312Z,62.75
2019-02-14T23:03:17.718Z,62.61
2019-02-14T23:05:47.662Z,62.57
2019-02-14T23:08:17.614Z,62.38
2019-02-14T23:10:47.873Z,62.74
2019-02-14T23:13:17.830Z,62.70
2019-02-14T23:15:47.767Z,62.63
2019-02-14T23:18:17.721Z,62.56
2019-02-14T23:20:48.724Z,62.60
2019-02-14T23:23:19.363Z,63.11
2019-02-14T23:25:49.311Z,63.55
2019-02-14T23:28:19.204Z,63.72
2019-02-14T23:30:48.997Z,63.69
2019-02-14T23:33:18.948Z,63.83
2019-02-14T23:35:49.666Z,64.12
2019-02-14T23:38:19.629Z,64.09
2019-02-14T23:40:49.777Z,63.38
2019-02-14T23:43:22.661Z,63.10
2019-02-14T23:45:52.607Z,62.89
2019-02-14T23:48:22.471Z,63.08
2019-02-14T23:50:52.340Z,63.18
2019-02-14T23:53:22.610Z,63.28
2019-02-14T23:55:52.571Z,62.99
2019-02-14T23:58:22.548Z,63.28
